sensor_id;sensor_type;location;lat;lon;timestamp;P1;durP1;ratioP1;P2;durP2;ratioP2
51738;SDS011;37815;52.692;6.226;2023-07-29T00:04:31;8.60;;;5.95;;
51738;SDS011;37815;52.692;6.226;2023-07-29T00:09:32;8.00;;;5.47;;
51738;SDS011;37815;52.692;6.226;2023-07-29T00:14:32;9.52;;;6.13;;
51738;SDS011;37815;52.692;6.226;2023-07-29T00:19:33;9.63;;;5.93;;
51738;SDS011;37815;52.692;6.226;2023-07-29T00:24:34;9.50;;;5.97;;
51738;SDS011;37815;52.692;6.226;2023-07-29T00:29:38;8.77;;;5.85;;
51738;SDS011;37815;52.692;6.226;2023-07-29T00:34:39;9.00;;;6.07;;
51738;SDS011;37815;52.692;6.226;2023-07-29T00:39:39;9.75;;;5.80;;
51738;SDS011;37815;52.692;6.226;2023-07-29T00:44:40;8.57;;;5.80;;
51738;SDS011;37815;52.692;6.226;2023-07-29T00:49:41;8.20;;;5.25;;
51738;SDS011;37815;52.692;6.226;2023-07-29T00:54:45;9.18;;;5.85;;
51738;SDS011;37815;52.692;6.226;2023-07-29T00:59:45;7.55;;;5.22;;
51738;SDS011;37815;52.692;6.226;2023-07-29T01:04:51;9.48;;;5.93;;
51738;SDS011;37815;52.692;6.226;2023-07-29T01:15:04;9.43;;;6.72;;
51738;SDS011;37815;52.692;6.226;2023-07-29T01:20:12;8.75;;;5.88;;
51738;SDS011;37815;52.692;6.226;2023-07-29T01:25:15;7.63;;;5.65;;
51738;SDS011;37815;52.692;6.226;2023-07-29T01:30:16;11.98;;;5.90;;
51738;SDS011;37815;52.692;6.226;2023-07-29T01:35:21;9.00;;;6.20;;
51738;SDS011;37815;52.692;6.226;2023-07-29T01:40:42;8.00;;;4.95;;
51738;SDS011;37815;52.692;6.226;2023-07-29T01:45:43;7.45;;;5.22;;
51738;SDS011;37815;52.692;6.226;2023-07-29T01:50:44;7.43;;;4.85;;
51738;SDS011;37815;52.692;6.226;2023-07-29T01:55:45;8.60;;;5.13;;
51738;SDS011;37815;52.692;6.226;2023-07-29T02:00:46;8.45;;;5.30;;
51738;SDS011;37815;52.692;6.226;2023-07-29T02:05:46;8.15;;;5.43;;
51738;SDS011;37815;52.692;6.226;2023-07-29T02:10:47;6.13;;;4.40;;
51738;SDS011;37815;52.692;6.226;2023-07-29T02:15:48;5.95;;;4.72;;
51738;SDS011;37815;52.692;6.226;2023-07-29T02:20:49;7.40;;;5.30;;
51738;SDS011;37815;52.692;6.226;2023-07-29T02:25:50;7.25;;;5.15;;
51738;SDS011;37815;52.692;6.226;2023-07-29T02:31:08;9.02;;;5.70;;
51738;SDS011;37815;52.692;6.226;2023-07-29T02:36:16;7.93;;;5.20;;
51738;SDS011;37815;52.692;6.226;2023-07-29T02:41:17;7.35;;;5.07;;
51738;SDS011;37815;52.692;6.226;2023-07-29T02:46:17;7.40;;;5.10;;
51738;SDS011;37815;52.692;6.226;2023-07-29T02:51:18;7.40;;;4.65;;
51738;SDS011;37815;52.692;6.226;2023-07-29T02:56:19;6.15;;;4.90;;
51738;SDS011;37815;52.692;6.226;2023-07-29T03:01:19;7.18;;;4.97;;
51738;SDS011;37815;52.692;6.226;2023-07-29T03:06:20;6.22;;;4.32;;
51738;SDS011;37815;52.692;6.226;2023-07-29T03:11:20;8.30;;;5.10;;
51738;SDS011;37815;52.692;6.226;2023-07-29T03:16:21;6.88;;;4.68;;
51738;SDS011;37815;52.692;6.226;2023-07-29T03:21:22;5.95;;;3.95;;
51738;SDS011;37815;52.692;6.226;2023-07-29T03:26:23;5.88;;;3.85;;
51738;SDS011;37815;52.692;6.226;2023-07-29T03:31:23;7.78;;;3.88;;
51738;SDS011;37815;52.692;6.226;2023-07-29T03:36:24;6.32;;;4.20;;
51738;SDS011;37815;52.692;6.226;2023-07-29T03:41:25;6.13;;;4.13;;
51738;SDS011;37815;52.692;6.226;2023-07-29T03:46:26;5.32;;;3.70;;
51738;SDS011;37815;52.692;6.226;2023-07-29T03:51:27;6.15;;;3.75;;
51738;SDS011;37815;52.692;6.226;2023-07-29T03:56:27;4.03;;;3.33;;
51738;SDS011;37815;52.692;6.226;2023-07-29T04:01:28;4.85;;;3.72;;
51738;SDS011;37815;52.692;6.226;2023-07-29T04:06:28;5.38;;;3.80;;
51738;SDS011;37815;52.692;6.226;2023-07-29T04:11:29;4.45;;;3.42;;
51738;SDS011;37815;52.692;6.226;2023-07-29T04:16:30;5.18;;;3.88;;
51738;SDS011;37815;52.692;6.226;2023-07-29T04:21:30;4.85;;;3.70;;
51738;SDS011;37815;52.692;6.226;2023-07-29T04:26:31;5.70;;;3.63;;
51738;SDS011;37815;52.692;6.226;2023-07-29T04:31:31;4.22;;;3.03;;
51738;SDS011;37815;52.692;6.226;2023-07-29T04:36:32;3.70;;;2.90;;
51738;SDS011;37815;52.692;6.226;2023-07-29T04:41:33;4.53;;;3.13;;
51738;SDS011;37815;52.692;6.226;2023-07-29T04:46:33;3.95;;;3.08;;
51738;SDS011;37815;52.692;6.226;2023-07-29T04:51:35;3.80;;;3.03;;
51738;SDS011;37815;52.692;6.226;2023-07-29T04:56:37;5.00;;;3.55;;
51738;SDS011;37815;52.692;6.226;2023-07-29T05:01:37;3.58;;;2.88;;
51738;SDS011;37815;52.692;6.226;2023-07-29T05:06:38;5.25;;;3.30;;
51738;SDS011;37815;52.692;6.226;2023-07-29T05:11:39;5.07;;;2.95;;
51738;SDS011;37815;52.692;6.226;2023-07-29T05:16:40;6.38;;;3.40;;
51738;SDS011;37815;52.692;6.226;2023-07-29T05:21:40;5.22;;;3.63;;
51738;SDS011;37815;52.692;6.226;2023-07-29T05:26:41;5.03;;;3.97;;
51738;SDS011;37815;52.692;6.226;2023-07-29T05:31:41;4.45;;;3.63;;
51738;SDS011;37815;52.692;6.226;2023-07-29T05:36:42;4.35;;;3.25;;
51738;SDS011;37815;52.692;6.226;2023-07-29T05:41:43;4.15;;;3.13;;
51738;SDS011;37815;52.692;6.226;2023-07-29T05:46:43;4.53;;;3.08;;
51738;SDS011;37815;52.692;6.226;2023-07-29T05:51:44;5.28;;;3.35;;
51738;SDS011;37815;52.692;6.226;2023-07-29T05:56:45;6.25;;;3.33;;
51738;SDS011;37815;52.692;6.226;2023-07-29T06:01:45;4.43;;;3.25;;
51738;SDS011;37815;52.692;6.226;2023-07-29T06:06:46;6.13;;;3.58;;
51738;SDS011;37815;52.692;6.226;2023-07-29T06:11:50;4.95;;;3.53;;
51738;SDS011;37815;52.692;6.226;2023-07-29T06:16:51;4.40;;;3.25;;
51738;SDS011;37815;52.692;6.226;2023-07-29T06:21:51;4.63;;;3.00;;
51738;SDS011;37815;52.692;6.226;2023-07-29T06:26:55;4.13;;;3.03;;
51738;SDS011;37815;52.692;6.226;2023-07-29T06:31:56;4.32;;;3.38;;
51738;SDS011;37815;52.692;6.226;2023-07-29T06:36:58;4.72;;;3.20;;
51738;SDS011;37815;52.692;6.226;2023-07-29T06:41:59;5.05;;;3.38;;
51738;SDS011;37815;52.692;6.226;2023-07-29T06:46:59;3.72;;;2.85;;
51738;SDS011;37815;52.692;6.226;2023-07-29T06:52:00;3.92;;;2.92;;
51738;SDS011;37815;52.692;6.226;2023-07-29T06:57:01;4.45;;;3.13;;
51738;SDS011;37815;52.692;6.226;2023-07-29T07:02:02;6.00;;;3.45;;
51738;SDS011;37815;52.692;6.226;2023-07-29T07:07:02;6.22;;;3.22;;
51738;SDS011;37815;52.692;6.226;2023-07-29T07:12:03;4.78;;;3.22;;
51738;SDS011;37815;52.692;6.226;2023-07-29T07:17:04;5.15;;;3.63;;
51738;SDS011;37815;52.692;6.226;2023-07-29T07:22:05;4.78;;;3.55;;
51738;SDS011;37815;52.692;6.226;2023-07-29T07:27:06;5.65;;;3.30;;
51738;SDS011;37815;52.692;6.226;2023-07-29T07:32:06;6.70;;;3.67;;
51738;SDS011;37815;52.692;6.226;2023-07-29T07:37:07;4.47;;;3.35;;
51738;SDS011;37815;52.692;6.226;2023-07-29T07:42:08;4.35;;;3.38;;
51738;SDS011;37815;52.692;6.226;2023-07-29T07:47:08;4.90;;;3.63;;
51738;SDS011;37815;52.692;6.226;2023-07-29T07:52:09;4.88;;;3.42;;
51738;SDS011;37815;52.692;6.226;2023-07-29T07:57:10;7.57;;;4.68;;
51738;SDS011;37815;52.692;6.226;2023-07-29T08:02:10;6.10;;;3.90;;
51738;SDS011;37815;52.692;6.226;2023-07-29T08:07:11;7.45;;;3.80;;
51738;SDS011;37815;52.692;6.226;2023-07-29T08:12:11;7.45;;;4.57;;
51738;SDS011;37815;52.692;6.226;2023-07-29T08:17:12;6.55;;;4.07;;
51738;SDS011;37815;52.692;6.226;2023-07-29T08:22:13;6.70;;;3.92;;
51738;SDS011;37815;52.692;6.226;2023-07-29T08:27:13;7.45;;;3.60;;
51738;SDS011;37815;52.692;6.226;2023-07-29T08:32:14;4.57;;;3.15;;
51738;SDS011;37815;52.692;6.226;2023-07-29T08:37:15;6.90;;;3.20;;
51738;SDS011;37815;52.692;6.226;2023-07-29T08:42:16;6.40;;;2.50;;
51738;SDS011;37815;52.692;6.226;2023-07-29T08:47:19;5.33;;;2.80;;
51738;SDS011;37815;52.692;6.226;2023-07-29T08:52:20;5.13;;;2.50;;
51738;SDS011;37815;52.692;6.226;2023-07-29T08:57:21;4.78;;;2.13;;
51738;SDS011;37815;52.692;6.226;2023-07-29T09:02:23;7.63;;;2.55;;
51738;SDS011;37815;52.692;6.226;2023-07-29T09:07:24;4.37;;;2.30;;
51738;SDS011;37815;52.692;6.226;2023-07-29T09:12:25;3.97;;;2.45;;
51738;SDS011;37815;52.692;6.226;2023-07-29T09:17:26;5.43;;;2.50;;
51738;SDS011;37815;52.692;6.226;2023-07-29T09:22:34;4.90;;;2.40;;
51738;SDS011;37815;52.692;6.226;2023-07-29T09:27:35;5.40;;;2.57;;
51738;SDS011;37815;52.692;6.226;2023-07-29T09:32:38;3.37;;;2.60;;
51738;SDS011;37815;52.692;6.226;2023-07-29T09:37:39;5.32;;;2.92;;
51738;SDS011;37815;52.692;6.226;2023-07-29T09:42:40;5.38;;;3.00;;
51738;SDS011;37815;52.692;6.226;2023-07-29T09:47:48;4.33;;;3.13;;
51738;SDS011;37815;52.692;6.226;2023-07-29T09:52:50;5.07;;;3.50;;
51738;SDS011;37815;52.692;6.226;2023-07-29T09:57:58;5.37;;;3.67;;
51738;SDS011;37815;52.692;6.226;2023-07-29T10:03:02;6.70;;;3.50;;
51738;SDS011;37815;52.692;6.226;2023-07-29T10:08:03;7.65;;;3.80;;
51738;SDS011;37815;52.692;6.226;2023-07-29T10:13:05;4.82;;;3.60;;
51738;SDS011;37815;52.692;6.226;2023-07-29T10:18:06;6.20;;;3.70;;
51738;SDS011;37815;52.692;6.226;2023-07-29T10:23:07;5.10;;;4.00;;
51738;SDS011;37815;52.692;6.226;2023-07-29T10:28:10;5.90;;;3.80;;
51738;SDS011;37815;52.692;6.226;2023-07-29T10:33:12;4.70;;;4.00;;
51738;SDS011;37815;52.692;6.226;2023-07-29T10:38:14;7.20;;;4.77;;
51738;SDS011;37815;52.692;6.226;2023-07-29T10:43:26;7.07;;;4.57;;
51738;SDS011;37815;52.692;6.226;2023-07-29T10:53:35;6.35;;;4.97;;
51738;SDS011;37815;52.692;6.226;2023-07-29T10:58:37;5.90;;;4.88;;
51738;SDS011;37815;52.692;6.226;2023-07-29T11:03:38;5.22;;;3.60;;
51738;SDS011;37815;52.692;6.226;2023-07-29T11:08:38;5.10;;;2.90;;
51738;SDS011;37815;52.692;6.226;2023-07-29T11:13:39;3.97;;;2.30;;
51738;SDS011;37815;52.692;6.226;2023-07-29T11:18:40;5.20;;;2.30;;
51738;SDS011;37815;52.692;6.226;2023-07-29T11:23:41;3.75;;;2.00;;
51738;SDS011;37815;52.692;6.226;2023-07-29T11:28:42;5.25;;;2.10;;
51738;SDS011;37815;52.692;6.226;2023-07-29T11:33:43;6.13;;;2.10;;
51738;SDS011;37815;52.692;6.226;2023-07-29T11:38:43;3.70;;;1.70;;
51738;SDS011;37815;52.692;6.226;2023-07-29T11:43:45;4.18;;;2.10;;
51738;SDS011;37815;52.692;6.226;2023-07-29T11:48:46;3.67;;;1.90;;
51738;SDS011;37815;52.692;6.226;2023-07-29T11:53:47;5.05;;;2.10;;
51738;SDS011;37815;52.692;6.226;2023-07-29T11:58:48;4.20;;;2.00;;
51738;SDS011;37815;52.692;6.226;2023-07-29T12:03:50;4.32;;;1.92;;
51738;SDS011;37815;52.692;6.226;2023-07-29T12:08:51;5.03;;;2.25;;
51738;SDS011;37815;52.692;6.226;2023-07-29T12:13:53;3.10;;;1.83;;
51738;SDS011;37815;52.692;6.226;2023-07-29T12:18:54;4.88;;;2.28;;
51738;SDS011;37815;52.692;6.226;2023-07-29T12:23:54;3.87;;;2.10;;
51738;SDS011;37815;52.692;6.226;2023-07-29T12:28:55;4.40;;;2.17;;
51738;SDS011;37815;52.692;6.226;2023-07-29T12:33:59;5.10;;;2.33;;
51738;SDS011;37815;52.692;6.226;2023-07-29T12:38:59;4.93;;;2.03;;
51738;SDS011;37815;52.692;6.226;2023-07-29T12:44:00;5.17;;;1.90;;
51738;SDS011;37815;52.692;6.226;2023-07-29T12:49:01;5.03;;;1.90;;
51738;SDS011;37815;52.692;6.226;2023-07-29T12:54:01;6.10;;;2.13;;
51738;SDS011;37815;52.692;6.226;2023-07-29T12:59:04;4.53;;;2.15;;
51738;SDS011;37815;52.692;6.226;2023-07-29T13:04:05;6.30;;;2.03;;
51738;SDS011;37815;52.692;6.226;2023-07-29T13:09:06;6.55;;;2.40;;
51738;SDS011;37815;52.692;6.226;2023-07-29T13:14:07;4.90;;;2.35;;
51738;SDS011;37815;52.692;6.226;2023-07-29T13:19:08;4.50;;;2.20;;
51738;SDS011;37815;52.692;6.226;2023-07-29T13:24:08;5.35;;;3.05;;
51738;SDS011;37815;52.692;6.226;2023-07-29T13:29:09;4.55;;;2.47;;
51738;SDS011;37815;52.692;6.226;2023-07-29T13:34:10;5.63;;;2.47;;
51738;SDS011;37815;52.692;6.226;2023-07-29T13:39:10;4.43;;;2.47;;
51738;SDS011;37815;52.692;6.226;2023-07-29T13:44:11;7.13;;;2.90;;
51738;SDS011;37815;52.692;6.226;2023-07-29T13:49:11;5.87;;;2.83;;
51738;SDS011;37815;52.692;6.226;2023-07-29T13:54:12;3.88;;;2.63;;
51738;SDS011;37815;52.692;6.226;2023-07-29T13:59:13;5.43;;;3.00;;
51738;SDS011;37815;52.692;6.226;2023-07-29T14:04:13;5.20;;;2.90;;
51738;SDS011;37815;52.692;6.226;2023-07-29T14:09:14;4.63;;;3.03;;
51738;SDS011;37815;52.692;6.226;2023-07-29T14:14:14;5.50;;;3.80;;
51738;SDS011;37815;52.692;6.226;2023-07-29T14:19:15;5.47;;;3.03;;
51738;SDS011;37815;52.692;6.226;2023-07-29T14:24:16;4.20;;;2.90;;
51738;SDS011;37815;52.692;6.226;2023-07-29T14:29:16;4.22;;;2.40;;
51738;SDS011;37815;52.692;6.226;2023-07-29T14:34:17;4.85;;;2.30;;
51738;SDS011;37815;52.692;6.226;2023-07-29T14:39:18;4.00;;;1.73;;
51738;SDS011;37815;52.692;6.226;2023-07-29T14:44:20;2.88;;;2.00;;
51738;SDS011;37815;52.692;6.226;2023-07-29T14:49:21;2.03;;;1.53;;
51738;SDS011;37815;52.692;6.226;2023-07-29T14:54:22;5.10;;;2.00;;
51738;SDS011;37815;52.692;6.226;2023-07-29T14:59:22;3.30;;;1.87;;
51738;SDS011;37815;52.692;6.226;2023-07-29T15:04:23;3.87;;;1.93;;
51738;SDS011;37815;52.692;6.226;2023-07-29T15:09:24;2.75;;;1.80;;
51738;SDS011;37815;52.692;6.226;2023-07-29T15:14:24;2.50;;;1.30;;
51738;SDS011;37815;52.692;6.226;2023-07-29T15:19:25;3.30;;;1.40;;
51738;SDS011;37815;52.692;6.226;2023-07-29T15:24:26;2.33;;;1.30;;
51738;SDS011;37815;52.692;6.226;2023-07-29T15:29:26;2.10;;;1.27;;
51738;SDS011;37815;52.692;6.226;2023-07-29T15:34:27;3.27;;;1.17;;
51738;SDS011;37815;52.692;6.226;2023-07-29T15:39:31;2.60;;;1.33;;
51738;SDS011;37815;52.692;6.226;2023-07-29T15:44:32;2.10;;;1.30;;
51738;SDS011;37815;52.692;6.226;2023-07-29T15:49:32;3.08;;;1.25;;
51738;SDS011;37815;52.692;6.226;2023-07-29T15:54:33;4.30;;;1.10;;
51738;SDS011;37815;52.692;6.226;2023-07-29T15:59:34;2.57;;;1.47;;
51738;SDS011;37815;52.692;6.226;2023-07-29T16:04:34;3.87;;;1.53;;
51738;SDS011;37815;52.692;6.226;2023-07-29T16:09:35;2.40;;;1.30;;
51738;SDS011;37815;52.692;6.226;2023-07-29T16:14:35;3.70;;;1.20;;
51738;SDS011;37815;52.692;6.226;2023-07-29T16:19:51;2.07;;;1.40;;
51738;SDS011;37815;52.692;6.226;2023-07-29T16:24:56;4.47;;;1.40;;
51738;SDS011;37815;52.692;6.226;2023-07-29T16:29:57;3.77;;;1.30;;
51738;SDS011;37815;52.692;6.226;2023-07-29T16:34:59;3.15;;;1.50;;
51738;SDS011;37815;52.692;6.226;2023-07-29T16:40:00;2.40;;;1.30;;
51738;SDS011;37815;52.692;6.226;2023-07-29T16:45:02;1.97;;;1.20;;
51738;SDS011;37815;52.692;6.226;2023-07-29T16:50:03;2.63;;;1.20;;
51738;SDS011;37815;52.692;6.226;2023-07-29T16:55:05;2.85;;;1.40;;
51738;SDS011;37815;52.692;6.226;2023-07-29T17:00:07;3.03;;;1.40;;
51738;SDS011;37815;52.692;6.226;2023-07-29T17:05:08;3.23;;;1.60;;
51738;SDS011;37815;52.692;6.226;2023-07-29T17:10:09;1.83;;;1.27;;
51738;SDS011;37815;52.692;6.226;2023-07-29T17:15:10;3.53;;;1.33;;
51738;SDS011;37815;52.692;6.226;2023-07-29T17:20:10;3.80;;;1.58;;
51738;SDS011;37815;52.692;6.226;2023-07-29T17:25:12;3.90;;;1.67;;
51738;SDS011;37815;52.692;6.226;2023-07-29T17:30:13;2.40;;;1.35;;
51738;SDS011;37815;52.692;6.226;2023-07-29T17:35:13;2.77;;;1.60;;
51738;SDS011;37815;52.692;6.226;2023-07-29T17:40:14;3.50;;;1.53;;
51738;SDS011;37815;52.692;6.226;2023-07-29T17:45:15;3.07;;;1.60;;
51738;SDS011;37815;52.692;6.226;2023-07-29T17:50:16;3.17;;;1.90;;
51738;SDS011;37815;52.692;6.226;2023-07-29T17:55:16;4.23;;;2.10;;
51738;SDS011;37815;52.692;6.226;2023-07-29T18:00:17;3.67;;;1.80;;
51738;SDS011;37815;52.692;6.226;2023-07-29T18:05:18;4.68;;;1.90;;
51738;SDS011;37815;52.692;6.226;2023-07-29T18:10:18;3.63;;;2.30;;
51738;SDS011;37815;52.692;6.226;2023-07-29T18:15:19;3.90;;;2.10;;
51738;SDS011;37815;52.692;6.226;2023-07-29T18:20:19;4.50;;;2.30;;
51738;SDS011;37815;52.692;6.226;2023-07-29T18:25:20;3.70;;;2.60;;
51738;SDS011;37815;52.692;6.226;2023-07-29T18:30:21;4.88;;;3.15;;
51738;SDS011;37815;52.692;6.226;2023-07-29T18:35:22;5.55;;;3.10;;
51738;SDS011;37815;52.692;6.226;2023-07-29T18:40:22;5.45;;;3.88;;
51738;SDS011;37815;52.692;6.226;2023-07-29T18:45:23;5.22;;;3.53;;
51738;SDS011;37815;52.692;6.226;2023-07-29T18:50:24;4.37;;;3.20;;
51738;SDS011;37815;52.692;6.226;2023-07-29T18:55:25;6.47;;;3.80;;
51738;SDS011;37815;52.692;6.226;2023-07-29T19:00:28;5.13;;;3.13;;
51738;SDS011;37815;52.692;6.226;2023-07-29T19:05:29;5.50;;;3.40;;
51738;SDS011;37815;52.692;6.226;2023-07-29T19:10:29;4.63;;;3.53;;
51738;SDS011;37815;52.692;6.226;2023-07-29T19:15:30;4.68;;;3.42;;
51738;SDS011;37815;52.692;6.226;2023-07-29T19:20:31;6.57;;;3.95;;
51738;SDS011;37815;52.692;6.226;2023-07-29T19:25:32;4.35;;;3.00;;
51738;SDS011;37815;52.692;6.226;2023-07-29T19:30:33;4.70;;;2.80;;
51738;SDS011;37815;52.692;6.226;2023-07-29T19:35:33;6.10;;;2.77;;
51738;SDS011;37815;52.692;6.226;2023-07-29T19:40:37;5.05;;;3.33;;
51738;SDS011;37815;52.692;6.226;2023-07-29T19:45:38;6.90;;;3.63;;
51738;SDS011;37815;52.692;6.226;2023-07-29T19:50:44;5.05;;;3.50;;
51738;SDS011;37815;52.692;6.226;2023-07-29T19:55:45;5.00;;;3.60;;
51738;SDS011;37815;52.692;6.226;2023-07-29T20:00:50;6.65;;;3.53;;
51738;SDS011;37815;52.692;6.226;2023-07-29T20:05:51;5.95;;;3.67;;
51738;SDS011;37815;52.692;6.226;2023-07-29T20:10:52;5.80;;;3.63;;
51738;SDS011;37815;52.692;6.226;2023-07-29T20:15:53;5.80;;;3.40;;
51738;SDS011;37815;52.692;6.226;2023-07-29T20:20:53;5.13;;;3.35;;
51738;SDS011;37815;52.692;6.226;2023-07-29T20:25:54;5.27;;;3.37;;
51738;SDS011;37815;52.692;6.226;2023-07-29T20:30:58;5.50;;;3.45;;
51738;SDS011;37815;52.692;6.226;2023-07-29T20:35:59;4.78;;;3.35;;
51738;SDS011;37815;52.692;6.226;2023-07-29T20:41:00;5.53;;;3.30;;
51738;SDS011;37815;52.692;6.226;2023-07-29T20:46:00;6.00;;;3.50;;
51738;SDS011;37815;52.692;6.226;2023-07-29T20:51:01;5.40;;;3.40;;
51738;SDS011;37815;52.692;6.226;2023-07-29T20:56:02;6.33;;;3.30;;
51738;SDS011;37815;52.692;6.226;2023-07-29T21:01:02;5.60;;;3.38;;
51738;SDS011;37815;52.692;6.226;2023-07-29T21:06:03;4.57;;;2.97;;
51738;SDS011;37815;52.692;6.226;2023-07-29T21:11:04;6.32;;;3.17;;
51738;SDS011;37815;52.692;6.226;2023-07-29T21:16:05;5.07;;;3.30;;
51738;SDS011;37815;52.692;6.226;2023-07-29T21:21:05;5.53;;;3.20;;
51738;SDS011;37815;52.692;6.226;2023-07-29T21:26:06;6.10;;;3.70;;
51738;SDS011;37815;52.692;6.226;2023-07-29T21:31:07;6.13;;;3.40;;
51738;SDS011;37815;52.692;6.226;2023-07-29T21:36:07;7.30;;;3.80;;
51738;SDS011;37815;52.692;6.226;2023-07-29T21:41:08;6.60;;;3.43;;
51738;SDS011;37815;52.692;6.226;2023-07-29T21:46:09;5.83;;;3.53;;
51738;SDS011;37815;52.692;6.226;2023-07-29T21:51:09;6.70;;;4.23;;
51738;SDS011;37815;52.692;6.226;2023-07-29T21:56:10;7.17;;;3.70;;
51738;SDS011;37815;52.692;6.226;2023-07-29T22:01:10;5.60;;;4.00;;
51738;SDS011;37815;52.692;6.226;2023-07-29T22:06:11;7.70;;;4.35;;
51738;SDS011;37815;52.692;6.226;2023-07-29T22:11:12;8.05;;;4.18;;
51738;SDS011;37815;52.692;6.226;2023-07-29T22:16:12;6.90;;;3.80;;
51738;SDS011;37815;52.692;6.226;2023-07-29T22:21:13;7.40;;;3.80;;
51738;SDS011;37815;52.692;6.226;2023-07-29T22:26:14;5.47;;;3.80;;
51738;SDS011;37815;52.692;6.226;2023-07-29T22:31:14;5.77;;;3.53;;
51738;SDS011;37815;52.692;6.226;2023-07-29T22:36:15;7.03;;;4.30;;
51738;SDS011;37815;52.692;6.226;2023-07-29T22:41:16;6.77;;;3.57;;
51738;SDS011;37815;52.692;6.226;2023-07-29T22:46:16;6.73;;;3.63;;
51738;SDS011;37815;52.692;6.226;2023-07-29T22:51:17;7.23;;;3.90;;
51738;SDS011;37815;52.692;6.226;2023-07-29T22:56:18;5.63;;;3.40;;
51738;SDS011;37815;52.692;6.226;2023-07-29T23:01:18;8.47;;;3.90;;
51738;SDS011;37815;52.692;6.226;2023-07-29T23:06:19;7.28;;;3.90;;
51738;SDS011;37815;52.692;6.226;2023-07-29T23:11:19;6.50;;;4.20;;
51738;SDS011;37815;52.692;6.226;2023-07-29T23:16:20;7.13;;;3.70;;
51738;SDS011;37815;52.692;6.226;2023-07-29T23:21:20;7.60;;;4.03;;
51738;SDS011;37815;52.692;6.226;2023-07-29T23:26:21;6.93;;;3.57;;
51738;SDS011;37815;52.692;6.226;2023-07-29T23:31:22;5.80;;;3.60;;
51738;SDS011;37815;52.692;6.226;2023-07-29T23:36:22;6.60;;;3.97;;
51738;SDS011;37815;52.692;6.226;2023-07-29T23:41:23;7.45;;;4.00;;
51738;SDS011;37815;52.692;6.226;2023-07-29T23:46:23;7.32;;;3.80;;
51738;SDS011;37815;52.692;6.226;2023-07-29T23:51:24;8.63;;;3.80;;
51738;SDS011;37815;52.692;6.226;2023-07-29T23:56:25;8.05;;;4.18;;
